sensor_id;sensor_type;location;lat;lon;timestamp;P1;durP1;ratioP1;P2;durP2;ratioP2
16760;SDS011;8498;52.516;13.790;2022-07-11T00:02:43;6.30;;;1.83;;
16760;SDS011;8498;52.516;13.790;2022-07-11T00:08:06;7.00;;;1.70;;
16760;SDS011;8498;52.516;13.790;2022-07-11T00:13:28;6.37;;;1.93;;
16760;SDS011;8498;52.516;13.790;2022-07-11T00:18:51;3.67;;;1.40;;
16760;SDS011;8498;52.516;13.790;2022-07-11T00:24:14;7.53;;;1.90;;
16760;SDS011;8498;52.516;13.790;2022-07-11T00:29:36;6.10;;;1.60;;
16760;SDS011;8498;52.516;13.790;2022-07-11T00:34:59;9.93;;;1.87;;
16760;SDS011;8498;52.516;13.790;2022-07-11T00:40:23;4.50;;;1.60;;
16760;SDS011;8498;52.516;13.790;2022-07-11T00:45:47;2.57;;;1.60;;
16760;SDS011;8498;52.516;13.790;2022-07-11T00:51:39;8.20;;;1.70;;
16760;SDS011;8498;52.516;13.790;2022-07-11T00:57:02;8.50;;;2.03;;
16760;SDS011;8498;52.516;13.790;2022-07-11T01:02:25;3.47;;;1.60;;
16760;SDS011;8498;52.516;13.790;2022-07-11T01:07:48;5.60;;;1.43;;
16760;SDS011;8498;52.516;13.790;2022-07-11T01:13:10;10.03;;;2.17;;
16760;SDS011;8498;52.516;13.790;2022-07-11T01:18:33;5.57;;;1.60;;
16760;SDS011;8498;52.516;13.790;2022-07-11T01:23:59;3.00;;;1.70;;
16760;SDS011;8498;52.516;13.790;2022-07-11T01:29:24;9.80;;;2.03;;
16760;SDS011;8498;52.516;13.790;2022-07-11T01:34:47;2.23;;;1.30;;
16760;SDS011;8498;52.516;13.790;2022-07-11T01:40:10;5.23;;;1.67;;
16760;SDS011;8498;52.516;13.790;2022-07-11T01:45:33;8.10;;;1.87;;
16760;SDS011;8498;52.516;13.790;2022-07-11T01:50:55;4.43;;;1.77;;
16760;SDS011;8498;52.516;13.790;2022-07-11T01:56:18;7.73;;;1.70;;
16760;SDS011;8498;52.516;13.790;2022-07-11T02:01:48;9.37;;;1.70;;
16760;SDS011;8498;52.516;13.790;2022-07-11T02:07:11;10.10;;;1.67;;
16760;SDS011;8498;52.516;13.790;2022-07-11T02:12:34;10.70;;;2.30;;
16760;SDS011;8498;52.516;13.790;2022-07-11T02:17:56;3.73;;;1.77;;
16760;SDS011;8498;52.516;13.790;2022-07-11T02:23:20;5.67;;;1.70;;
16760;SDS011;8498;52.516;13.790;2022-07-11T02:28:42;9.83;;;1.50;;
16760;SDS011;8498;52.516;13.790;2022-07-11T02:34:06;3.47;;;1.70;;
16760;SDS011;8498;52.516;13.790;2022-07-11T02:39:28;9.40;;;1.77;;
16760;SDS011;8498;52.516;13.790;2022-07-11T02:44:51;11.77;;;2.00;;
16760;SDS011;8498;52.516;13.790;2022-07-11T02:50:14;4.83;;;1.57;;
16760;SDS011;8498;52.516;13.790;2022-07-11T02:55:37;7.73;;;1.83;;
16760;SDS011;8498;52.516;13.790;2022-07-11T03:01:00;3.83;;;1.60;;
16760;SDS011;8498;52.516;13.790;2022-07-11T03:06:23;4.83;;;1.87;;
16760;SDS011;8498;52.516;13.790;2022-07-11T03:11:46;7.63;;;1.50;;
16760;SDS011;8498;52.516;13.790;2022-07-11T03:17:08;6.37;;;1.70;;
16760;SDS011;8498;52.516;13.790;2022-07-11T03:22:32;6.67;;;2.10;;
16760;SDS011;8498;52.516;13.790;2022-07-11T03:27:55;6.70;;;1.93;;
16760;SDS011;8498;52.516;13.790;2022-07-11T03:33:18;4.47;;;1.73;;
16760;SDS011;8498;52.516;13.790;2022-07-11T03:38:40;6.83;;;1.73;;
16760;SDS011;8498;52.516;13.790;2022-07-11T03:44:03;5.93;;;1.63;;
16760;SDS011;8498;52.516;13.790;2022-07-11T03:49:26;5.57;;;1.43;;
16760;SDS011;8498;52.516;13.790;2022-07-11T03:54:48;5.83;;;1.60;;
16760;SDS011;8498;52.516;13.790;2022-07-11T04:00:11;8.33;;;1.80;;
16760;SDS011;8498;52.516;13.790;2022-07-11T04:05:34;4.90;;;1.53;;
16760;SDS011;8498;52.516;13.790;2022-07-11T04:10:57;4.17;;;1.70;;
16760;SDS011;8498;52.516;13.790;2022-07-11T04:16:20;8.10;;;2.70;;
16760;SDS011;8498;52.516;13.790;2022-07-11T04:21:43;7.37;;;1.80;;
16760;SDS011;8498;52.516;13.790;2022-07-11T04:27:05;8.00;;;1.90;;
16760;SDS011;8498;52.516;13.790;2022-07-11T04:32:28;6.60;;;1.77;;
16760;SDS011;8498;52.516;13.790;2022-07-11T04:37:51;7.37;;;1.90;;
16760;SDS011;8498;52.516;13.790;2022-07-11T04:43:14;8.27;;;2.10;;
16760;SDS011;8498;52.516;13.790;2022-07-11T04:48:37;7.27;;;1.70;;
16760;SDS011;8498;52.516;13.790;2022-07-11T04:54:01;6.60;;;1.97;;
16760;SDS011;8498;52.516;13.790;2022-07-11T04:59:23;4.30;;;1.70;;
16760;SDS011;8498;52.516;13.790;2022-07-11T05:04:46;6.60;;;2.40;;
16760;SDS011;8498;52.516;13.790;2022-07-11T05:10:09;8.20;;;2.03;;
16760;SDS011;8498;52.516;13.790;2022-07-11T05:15:31;6.23;;;2.10;;
16760;SDS011;8498;52.516;13.790;2022-07-11T05:20:54;6.93;;;1.80;;
16760;SDS011;8498;52.516;13.790;2022-07-11T05:26:18;8.83;;;1.90;;
16760;SDS011;8498;52.516;13.790;2022-07-11T05:31:42;6.37;;;2.00;;
16760;SDS011;8498;52.516;13.790;2022-07-11T05:37:08;9.87;;;2.40;;
16760;SDS011;8498;52.516;13.790;2022-07-11T05:42:31;5.90;;;2.30;;
16760;SDS011;8498;52.516;13.790;2022-07-11T05:47:54;7.73;;;2.13;;
16760;SDS011;8498;52.516;13.790;2022-07-11T05:53:16;7.77;;;2.40;;
16760;SDS011;8498;52.516;13.790;2022-07-11T05:58:39;10.27;;;1.70;;
16760;SDS011;8498;52.516;13.790;2022-07-11T06:04:02;8.70;;;2.20;;
16760;SDS011;8498;52.516;13.790;2022-07-11T06:09:25;9.70;;;1.90;;
16760;SDS011;8498;52.516;13.790;2022-07-11T06:14:47;7.27;;;2.50;;
16760;SDS011;8498;52.516;13.790;2022-07-11T06:20:11;8.23;;;2.03;;
16760;SDS011;8498;52.516;13.790;2022-07-11T06:25:33;8.97;;;1.80;;
16760;SDS011;8498;52.516;13.790;2022-07-11T06:30:56;10.33;;;1.93;;
16760;SDS011;8498;52.516;13.790;2022-07-11T06:36:20;6.13;;;1.90;;
16760;SDS011;8498;52.516;13.790;2022-07-11T06:41:45;7.67;;;1.80;;
16760;SDS011;8498;52.516;13.790;2022-07-11T06:47:07;4.47;;;1.90;;
16760;SDS011;8498;52.516;13.790;2022-07-11T06:52:30;7.53;;;1.60;;
16760;SDS011;8498;52.516;13.790;2022-07-11T06:57:53;10.53;;;1.97;;
16760;SDS011;8498;52.516;13.790;2022-07-11T07:03:35;5.17;;;1.63;;
16760;SDS011;8498;52.516;13.790;2022-07-11T07:08:58;4.10;;;1.80;;
16760;SDS011;8498;52.516;13.790;2022-07-11T07:14:21;7.50;;;2.00;;
16760;SDS011;8498;52.516;13.790;2022-07-11T07:19:44;10.27;;;1.70;;
16760;SDS011;8498;52.516;13.790;2022-07-11T07:25:07;8.63;;;2.10;;
16760;SDS011;8498;52.516;13.790;2022-07-11T07:30:31;6.30;;;1.77;;
16760;SDS011;8498;52.516;13.790;2022-07-11T07:35:54;5.33;;;1.60;;
16760;SDS011;8498;52.516;13.790;2022-07-11T07:41:17;5.20;;;1.67;;
16760;SDS011;8498;52.516;13.790;2022-07-11T07:46:40;5.57;;;1.70;;
16760;SDS011;8498;52.516;13.790;2022-07-11T07:52:03;5.13;;;1.60;;
16760;SDS011;8498;52.516;13.790;2022-07-11T07:57:26;5.00;;;1.80;;
16760;SDS011;8498;52.516;13.790;2022-07-11T08:02:48;8.40;;;2.10;;
16760;SDS011;8498;52.516;13.790;2022-07-11T08:08:13;5.68;;;1.73;;
16760;SDS011;8498;52.516;13.790;2022-07-11T08:13:35;7.95;;;1.40;;
16760;SDS011;8498;52.516;13.790;2022-07-11T08:19:00;3.15;;;1.23;;
16760;SDS011;8498;52.516;13.790;2022-07-11T08:24:24;3.97;;;1.20;;
16760;SDS011;8498;52.516;13.790;2022-07-11T08:29:47;7.85;;;1.45;;
16760;SDS011;8498;52.516;13.790;2022-07-11T08:35:09;12.60;;;1.33;;
16760;SDS011;8498;52.516;13.790;2022-07-11T08:40:40;8.82;;;1.30;;
16760;SDS011;8498;52.516;13.790;2022-07-11T08:46:03;3.75;;;1.20;;
16760;SDS011;8498;52.516;13.790;2022-07-11T08:51:27;3.80;;;1.13;;
16760;SDS011;8498;52.516;13.790;2022-07-11T08:56:50;5.10;;;1.13;;
16760;SDS011;8498;52.516;13.790;2022-07-11T09:02:16;1.67;;;1.00;;
16760;SDS011;8498;52.516;13.790;2022-07-11T09:07:47;6.53;;;1.63;;
16760;SDS011;8498;52.516;13.790;2022-07-11T09:13:11;3.00;;;1.20;;
16760;SDS011;8498;52.516;13.790;2022-07-11T09:18:35;6.45;;;1.00;;
16760;SDS011;8498;52.516;13.790;2022-07-11T09:24:00;2.70;;;1.13;;
16760;SDS011;8498;52.516;13.790;2022-07-11T09:29:43;2.17;;;0.85;;
16760;SDS011;8498;52.516;13.790;2022-07-11T09:35:06;3.10;;;1.13;;
16760;SDS011;8498;52.516;13.790;2022-07-11T09:40:34;3.58;;;0.80;;
16760;SDS011;8498;52.516;13.790;2022-07-11T09:46:06;3.33;;;0.95;;
16760;SDS011;8498;52.516;13.790;2022-07-11T09:51:33;0.88;;;0.88;;
16760;SDS011;8498;52.516;13.790;2022-07-11T09:56:56;2.83;;;0.80;;
16760;SDS011;8498;52.516;13.790;2022-07-11T10:02:19;1.48;;;0.80;;
16760;SDS011;8498;52.516;13.790;2022-07-11T10:07:42;3.00;;;0.77;;
16760;SDS011;8498;52.516;13.790;2022-07-11T10:13:05;1.55;;;0.70;;
16760;SDS011;8498;52.516;13.790;2022-07-11T10:18:33;2.10;;;1.20;;
16760;SDS011;8498;52.516;13.790;2022-07-11T10:24:04;2.55;;;0.80;;
16760;SDS011;8498;52.516;13.790;2022-07-11T10:29:39;1.27;;;0.70;;
16760;SDS011;8498;52.516;13.790;2022-07-11T10:35:14;4.05;;;1.02;;
16760;SDS011;8498;52.516;13.790;2022-07-11T10:40:41;3.42;;;0.80;;
16760;SDS011;8498;52.516;13.790;2022-07-11T10:46:15;2.03;;;0.98;;
16760;SDS011;8498;52.516;13.790;2022-07-11T10:51:57;5.50;;;1.33;;
16760;SDS011;8498;52.516;13.790;2022-07-11T11:25:08;4.28;;;0.80;;
16760;SDS011;8498;52.516;13.790;2022-07-11T11:30:52;3.92;;;1.00;;
16760;SDS011;8498;52.516;13.790;2022-07-11T11:36:16;2.67;;;0.95;;
16760;SDS011;8498;52.516;13.790;2022-07-11T11:41:41;3.47;;;0.82;;
16760;SDS011;8498;52.516;13.790;2022-07-11T11:47:03;1.83;;;0.75;;
16760;SDS011;8498;52.516;13.790;2022-07-11T11:52:29;0.95;;;0.70;;
16760;SDS011;8498;52.516;13.790;2022-07-11T11:57:51;1.23;;;1.13;;
16760;SDS011;8498;52.516;13.790;2022-07-11T12:03:14;1.02;;;0.70;;
16760;SDS011;8498;52.516;13.790;2022-07-11T12:08:37;1.00;;;0.70;;
16760;SDS011;8498;52.516;13.790;2022-07-11T12:14:01;1.75;;;0.60;;
16760;SDS011;8498;52.516;13.790;2022-07-11T12:19:31;0.95;;;0.60;;
16760;SDS011;8498;52.516;13.790;2022-07-11T12:24:55;1.13;;;0.70;;
16760;SDS011;8498;52.516;13.790;2022-07-11T12:30:21;0.95;;;0.80;;
16760;SDS011;8498;52.516;13.790;2022-07-11T12:36:19;1.85;;;0.65;;
16760;SDS011;8498;52.516;13.790;2022-07-11T12:41:34;2.47;;;0.70;;
16760;SDS011;8498;52.516;13.790;2022-07-11T12:47:03;3.15;;;1.40;;
16760;SDS011;8498;52.516;13.790;2022-07-11T12:52:38;3.42;;;0.55;;
16760;SDS011;8498;52.516;13.790;2022-07-11T13:03:31;3.28;;;0.47;;
16760;SDS011;8498;52.516;13.790;2022-07-11T13:08:55;1.05;;;0.63;;
16760;SDS011;8498;52.516;13.790;2022-07-11T13:14:18;0.95;;;0.60;;
16760;SDS011;8498;52.516;13.790;2022-07-11T13:19:59;3.13;;;0.68;;
16760;SDS011;8498;52.516;13.790;2022-07-11T13:25:22;1.83;;;1.08;;
16760;SDS011;8498;52.516;13.790;2022-07-11T13:30:47;1.30;;;0.70;;
16760;SDS011;8498;52.516;13.790;2022-07-11T13:36:29;3.13;;;0.60;;
16760;SDS011;8498;52.516;13.790;2022-07-11T13:41:52;3.75;;;0.60;;
16760;SDS011;8498;52.516;13.790;2022-07-11T13:47:15;0.88;;;0.55;;
16760;SDS011;8498;52.516;13.790;2022-07-11T13:52:38;1.00;;;0.60;;
16760;SDS011;8498;52.516;13.790;2022-07-11T13:58:01;2.88;;;0.65;;
16760;SDS011;8498;52.516;13.790;2022-07-11T14:03:24;0.93;;;0.52;;
16760;SDS011;8498;52.516;13.790;2022-07-11T14:08:46;2.75;;;0.75;;
16760;SDS011;8498;52.516;13.790;2022-07-11T14:14:09;2.25;;;0.60;;
16760;SDS011;8498;52.516;13.790;2022-07-11T14:19:32;2.80;;;0.80;;
16760;SDS011;8498;52.516;13.790;2022-07-11T14:24:55;0.82;;;0.60;;
16760;SDS011;8498;52.516;13.790;2022-07-11T14:30:18;1.83;;;0.52;;
16760;SDS011;8498;52.516;13.790;2022-07-11T14:35:41;2.47;;;0.50;;
16760;SDS011;8498;52.516;13.790;2022-07-11T14:41:04;1.63;;;0.50;;
16760;SDS011;8498;52.516;13.790;2022-07-11T14:46:26;1.25;;;0.50;;
16760;SDS011;8498;52.516;13.790;2022-07-11T14:51:49;3.45;;;0.93;;
16760;SDS011;8498;52.516;13.790;2022-07-11T14:57:18;0.63;;;0.52;;
16760;SDS011;8498;52.516;13.790;2022-07-11T15:02:40;0.88;;;0.57;;
16760;SDS011;8498;52.516;13.790;2022-07-11T15:08:22;2.78;;;0.60;;
16760;SDS011;8498;52.516;13.790;2022-07-11T15:14:05;1.00;;;0.60;;
16760;SDS011;8498;52.516;13.790;2022-07-11T15:19:28;1.48;;;0.40;;
16760;SDS011;8498;52.516;13.790;2022-07-11T15:24:50;1.55;;;0.55;;
16760;SDS011;8498;52.516;13.790;2022-07-11T15:30:13;1.55;;;0.73;;
16760;SDS011;8498;52.516;13.790;2022-07-11T15:35:39;2.65;;;0.50;;
16760;SDS011;8498;52.516;13.790;2022-07-11T15:41:01;3.40;;;0.65;;
16760;SDS011;8498;52.516;13.790;2022-07-11T15:46:25;3.20;;;0.90;;
16760;SDS011;8498;52.516;13.790;2022-07-11T15:51:55;1.13;;;0.95;;
16760;SDS011;8498;52.516;13.790;2022-07-11T15:57:18;1.73;;;0.80;;
16760;SDS011;8498;52.516;13.790;2022-07-11T16:02:41;2.45;;;0.52;;
16760;SDS011;8498;52.516;13.790;2022-07-11T16:08:04;2.35;;;0.93;;
16760;SDS011;8498;52.516;13.790;2022-07-11T16:13:26;1.00;;;0.80;;
16760;SDS011;8498;52.516;13.790;2022-07-11T16:18:49;0.75;;;0.63;;
16760;SDS011;8498;52.516;13.790;2022-07-11T16:24:13;1.27;;;0.80;;
16760;SDS011;8498;52.516;13.790;2022-07-11T16:29:36;0.93;;;0.70;;
16760;SDS011;8498;52.516;13.790;2022-07-11T16:34:58;1.50;;;0.60;;
16760;SDS011;8498;52.516;13.790;2022-07-11T16:40:22;3.03;;;0.75;;
16760;SDS011;8498;52.516;13.790;2022-07-11T16:46:03;2.25;;;0.85;;
16760;SDS011;8498;52.516;13.790;2022-07-11T16:51:26;1.52;;;0.70;;
16760;SDS011;8498;52.516;13.790;2022-07-11T16:56:48;1.17;;;0.70;;
16760;SDS011;8498;52.516;13.790;2022-07-11T17:02:12;0.85;;;0.73;;
16760;SDS011;8498;52.516;13.790;2022-07-11T17:07:34;2.60;;;1.00;;
16760;SDS011;8498;52.516;13.790;2022-07-11T17:12:57;1.80;;;0.85;;
16760;SDS011;8498;52.516;13.790;2022-07-11T17:18:20;3.22;;;0.93;;
16760;SDS011;8498;52.516;13.790;2022-07-11T17:23:43;1.42;;;0.70;;
16760;SDS011;8498;52.516;13.790;2022-07-11T17:29:07;2.80;;;1.05;;
16760;SDS011;8498;52.516;13.790;2022-07-11T17:34:29;3.65;;;1.10;;
16760;SDS011;8498;52.516;13.790;2022-07-11T17:39:52;5.05;;;1.00;;
16760;SDS011;8498;52.516;13.790;2022-07-11T17:45:14;2.45;;;0.80;;
16760;SDS011;8498;52.516;13.790;2022-07-11T17:50:40;2.15;;;1.00;;
16760;SDS011;8498;52.516;13.790;2022-07-11T17:56:25;1.90;;;0.70;;
16760;SDS011;8498;52.516;13.790;2022-07-11T18:01:48;0.88;;;0.75;;
16760;SDS011;8498;52.516;13.790;2022-07-11T18:07:11;1.40;;;0.80;;
16760;SDS011;8498;52.516;13.790;2022-07-11T18:12:33;2.30;;;0.95;;
16760;SDS011;8498;52.516;13.790;2022-07-11T18:17:58;2.35;;;0.70;;
16760;SDS011;8498;52.516;13.790;2022-07-11T18:23:22;1.52;;;0.80;;
16760;SDS011;8498;52.516;13.790;2022-07-11T18:28:44;3.08;;;0.80;;
16760;SDS011;8498;52.516;13.790;2022-07-11T18:34:07;2.83;;;0.70;;
16760;SDS011;8498;52.516;13.790;2022-07-11T18:39:30;2.03;;;1.10;;
16760;SDS011;8498;52.516;13.790;2022-07-11T18:45:11;4.20;;;0.93;;
16760;SDS011;8498;52.516;13.790;2022-07-11T18:50:35;3.05;;;0.80;;
16760;SDS011;8498;52.516;13.790;2022-07-11T18:55:59;2.67;;;0.75;;
16760;SDS011;8498;52.516;13.790;2022-07-11T19:01:21;1.27;;;0.52;;
16760;SDS011;8498;52.516;13.790;2022-07-11T19:06:44;1.15;;;0.82;;
16760;SDS011;8498;52.516;13.790;2022-07-11T19:12:08;1.63;;;0.80;;
16760;SDS011;8498;52.516;13.790;2022-07-11T19:17:31;3.53;;;0.93;;
16760;SDS011;8498;52.516;13.790;2022-07-11T19:22:53;0.65;;;0.60;;
16760;SDS011;8498;52.516;13.790;2022-07-11T19:28:16;4.05;;;0.98;;
16760;SDS011;8498;52.516;13.790;2022-07-11T19:33:39;1.88;;;1.00;;
16760;SDS011;8498;52.516;13.790;2022-07-11T19:39:01;2.83;;;1.02;;
16760;SDS011;8498;52.516;13.790;2022-07-11T19:44:24;2.35;;;1.10;;
16760;SDS011;8498;52.516;13.790;2022-07-11T19:49:47;2.22;;;1.40;;
16760;SDS011;8498;52.516;13.790;2022-07-11T19:55:10;3.65;;;1.90;;
16760;SDS011;8498;52.516;13.790;2022-07-11T20:00:53;1.80;;;1.55;;
16760;SDS011;8498;52.516;13.790;2022-07-11T20:06:15;4.47;;;1.67;;
16760;SDS011;8498;52.516;13.790;2022-07-11T20:11:38;4.80;;;1.40;;
16760;SDS011;8498;52.516;13.790;2022-07-11T20:17:01;3.80;;;1.23;;
16760;SDS011;8498;52.516;13.790;2022-07-11T20:22:31;4.35;;;1.40;;
16760;SDS011;8498;52.516;13.790;2022-07-11T20:27:53;6.55;;;1.13;;
16760;SDS011;8498;52.516;13.790;2022-07-11T20:33:16;1.80;;;0.93;;
16760;SDS011;8498;52.516;13.790;2022-07-11T20:38:38;4.43;;;1.40;;
16760;SDS011;8498;52.516;13.790;2022-07-11T20:44:01;1.50;;;1.20;;
16760;SDS011;8498;52.516;13.790;2022-07-11T20:49:23;1.67;;;1.30;;
16760;SDS011;8498;52.516;13.790;2022-07-11T20:54:46;4.15;;;1.30;;
16760;SDS011;8498;52.516;13.790;2022-07-11T21:00:09;3.60;;;1.50;;
16760;SDS011;8498;52.516;13.790;2022-07-11T21:05:32;3.28;;;1.38;;
16760;SDS011;8498;52.516;13.790;2022-07-11T21:10:54;2.22;;;1.55;;
16760;SDS011;8498;52.516;13.790;2022-07-11T21:16:17;3.97;;;1.85;;
16760;SDS011;8498;52.516;13.790;2022-07-11T21:21:40;2.43;;;1.77;;
16760;SDS011;8498;52.516;13.790;2022-07-11T21:27:02;1.92;;;1.80;;
16760;SDS011;8498;52.516;13.790;2022-07-11T21:32:25;2.25;;;1.75;;
16760;SDS011;8498;52.516;13.790;2022-07-11T21:37:48;2.72;;;1.90;;
16760;SDS011;8498;52.516;13.790;2022-07-11T21:43:11;4.30;;;1.97;;
16760;SDS011;8498;52.516;13.790;2022-07-11T21:48:35;2.90;;;1.80;;
16760;SDS011;8498;52.516;13.790;2022-07-11T21:53:57;3.80;;;2.00;;
16760;SDS011;8498;52.516;13.790;2022-07-11T21:59:19;1.95;;;1.67;;
16760;SDS011;8498;52.516;13.790;2022-07-11T22:04:42;2.83;;;1.73;;
16760;SDS011;8498;52.516;13.790;2022-07-11T22:10:05;3.77;;;1.83;;
16760;SDS011;8498;52.516;13.790;2022-07-11T22:15:28;2.50;;;1.73;;
16760;SDS011;8498;52.516;13.790;2022-07-11T22:20:50;4.30;;;1.40;;
16760;SDS011;8498;52.516;13.790;2022-07-11T22:26:12;1.87;;;1.53;;
16760;SDS011;8498;52.516;13.790;2022-07-11T22:31:41;1.43;;;1.33;;
16760;SDS011;8498;52.516;13.790;2022-07-11T22:37:03;2.07;;;1.70;;
16760;SDS011;8498;52.516;13.790;2022-07-11T22:42:26;3.40;;;1.70;;
16760;SDS011;8498;52.516;13.790;2022-07-11T22:47:48;2.57;;;1.83;;
16760;SDS011;8498;52.516;13.790;2022-07-11T22:53:12;1.60;;;1.50;;
16760;SDS011;8498;52.516;13.790;2022-07-11T22:58:35;1.77;;;1.67;;
16760;SDS011;8498;52.516;13.790;2022-07-11T23:03:57;4.57;;;2.23;;
16760;SDS011;8498;52.516;13.790;2022-07-11T23:09:21;2.90;;;1.80;;
16760;SDS011;8498;52.516;13.790;2022-07-11T23:14:43;2.00;;;1.50;;
16760;SDS011;8498;52.516;13.790;2022-07-11T23:20:06;2.83;;;1.53;;
16760;SDS011;8498;52.516;13.790;2022-07-11T23:25:30;3.50;;;1.50;;
16760;SDS011;8498;52.516;13.790;2022-07-11T23:30:53;1.97;;;1.70;;
16760;SDS011;8498;52.516;13.790;2022-07-11T23:36:15;3.63;;;1.63;;
16760;SDS011;8498;52.516;13.790;2022-07-11T23:41:38;5.80;;;1.70;;
16760;SDS011;8498;52.516;13.790;2022-07-11T23:47:01;1.40;;;1.40;;
16760;SDS011;8498;52.516;13.790;2022-07-11T23:52:23;1.97;;;1.57;;
16760;SDS011;8498;52.516;13.790;2022-07-11T23:57:47;2.20;;;1.97;;
